createdAt,value
2022-08-22T00:01:10.851Z,20.79
2022-08-22T00:02:27.797Z,20.87
2022-08-22T00:02:42.057Z,21.28
2022-08-22T00:02:44.824Z,21.46
2022-08-22T00:02:57.069Z,21.21
2022-08-22T00:02:57.283Z,21.69
2022-08-22T00:02:58.484Z,21.32
2022-08-22T00:02:59.130Z,20.84
2022-08-22T00:03:06.939Z,21.08
2022-08-22T00:03:12.732Z,21.31
2022-08-22T00:03:39.949Z,20.99
2022-08-22T00:05:03.745Z,21.08
2022-08-22T00:06:26.362Z,21.03
2022-08-22T00:07:36.513Z,20.92
2022-08-22T00:08:49.472Z,20.69
2022-08-22T00:10:11.264Z,20.48
2022-08-22T00:11:33.195Z,20.35
2022-08-22T00:13:05.940Z,20.17
2022-08-22T00:14:20.578Z,20.03
2022-08-22T00:15:43.668Z,19.92
2022-08-22T00:17:06.508Z,19.79
2022-08-22T00:18:16.249Z,19.64
2022-08-22T00:19:31.128Z,19.56
2022-08-22T00:20:44.538Z,19.54
2022-08-22T00:22:04.201Z,19.55
2022-08-22T00:23:24.306Z,19.55
2022-08-22T00:24:53.679Z,19.46
2022-08-22T00:26:03.875Z,19.37
2022-08-22T00:27:12.841Z,19.32
2022-08-22T00:29:03.670Z,19.29
2022-08-22T00:30:11.217Z,19.27
2022-08-22T00:31:21.901Z,19.25
2022-08-22T00:32:47.176Z,19.26
2022-08-22T00:34:04.971Z,19.37
2022-08-22T00:35:42.914Z,19.37
2022-08-22T00:36:59.991Z,19.46
2022-08-22T00:38:22.753Z,19.55
2022-08-22T00:39:35.857Z,19.56
2022-08-22T00:41:06.650Z,19.56
2022-08-22T00:42:41.694Z,19.55
2022-08-22T00:44:07.784Z,19.55
2022-08-22T00:45:30.887Z,19.46
2022-08-22T00:46:47.740Z,19.41
2022-08-22T00:48:08.033Z,19.30
2022-08-22T00:49:18.373Z,19.29
2022-08-22T00:50:42.125Z,19.31
2022-08-22T00:52:11.303Z,19.27
2022-08-22T00:53:30.996Z,19.26
2022-08-22T00:54:50.757Z,19.28
2022-08-22T00:56:27.348Z,19.24
2022-08-22T00:57:38.007Z,19.22
2022-08-22T00:58:39.587Z,19.24
2022-08-22T00:59:43.995Z,19.24
2022-08-22T01:00:53.610Z,19.23
2022-08-22T01:02:07.366Z,19.20
2022-08-22T01:03:49.564Z,19.20
2022-08-22T01:05:35.500Z,19.17
2022-08-22T01:07:03.257Z,19.15
2022-08-22T01:08:10.587Z,19.16
2022-08-22T01:09:30.184Z,19.20
2022-08-22T01:11:04.060Z,19.25
2022-08-22T01:12:14.552Z,19.30
2022-08-22T01:13:34.388Z,19.41
2022-08-22T01:15:02.072Z,19.51
2022-08-22T01:16:30.120Z,19.46
2022-08-22T01:17:31.997Z,19.44
2022-08-22T01:19:07.398Z,19.47
2022-08-22T01:20:50.458Z,19.62
2022-08-22T01:22:12.316Z,19.77
2022-08-22T01:23:41.630Z,19.84
2022-08-22T01:25:03.108Z,19.94
2022-08-22T01:26:26.833Z,20.01
2022-08-22T01:27:52.818Z,20.09
2022-08-22T01:29:14.609Z,20.17
2022-08-22T01:30:19.268Z,20.25
2022-08-22T01:32:00.583Z,20.29
2022-08-22T01:33:16.751Z,20.31
2022-08-22T01:34:42.893Z,20.34
2022-08-22T01:36:13.120Z,20.35
2022-08-22T01:37:14.680Z,20.35
2022-08-22T01:38:36.717Z,20.37
2022-08-22T01:40:13.083Z,20.37
2022-08-22T01:41:36.361Z,20.40
2022-08-22T01:43:06.054Z,20.34
2022-08-22T01:44:13.619Z,20.19
2022-08-22T01:45:20.839Z,20.16
2022-08-22T01:46:27.926Z,20.07
2022-08-22T01:47:55.091Z,19.94
2022-08-22T01:49:15.972Z,19.77
2022-08-22T01:50:32.961Z,19.63
2022-08-22T01:51:54.791Z,19.52
2022-08-22T01:53:05.023Z,19.46
2022-08-22T01:54:25.068Z,19.47
2022-08-22T01:55:43.499Z,19.55
2022-08-22T01:56:46.912Z,19.56
2022-08-22T01:57:54.672Z,19.64
2022-08-22T01:59:04.721Z,19.69
2022-08-22T02:00:18.745Z,19.68
2022-08-22T02:01:36.065Z,19.59
2022-08-22T02:02:52.725Z,19.58
2022-08-22T02:04:20.228Z,19.55
2022-08-22T02:05:47.305Z,19.52
2022-08-22T02:07:01.152Z,19.50
2022-08-22T02:08:15.993Z,19.55
2022-08-22T02:09:32.531Z,19.58
2022-08-22T02:10:57.334Z,19.64
2022-08-22T02:12:25.134Z,19.70
2022-08-22T02:13:51.471Z,19.66
2022-08-22T02:15:05.671Z,19.68
2022-08-22T02:16:20.257Z,19.69
2022-08-22T02:17:24.700Z,19.71
2022-08-22T02:18:32.446Z,19.77
2022-08-22T02:19:44.675Z,19.86
2022-08-22T02:21:18.126Z,19.96
2022-08-22T02:22:37.110Z,20.04
2022-08-22T02:23:56.019Z,20.11
2022-08-22T02:25:12.374Z,20.18
2022-08-22T02:26:44.833Z,20.23
2022-08-22T02:27:58.305Z,20.16
2022-08-22T02:29:06.616Z,20.07
2022-08-22T02:30:13.136Z,20.12
2022-08-22T02:31:24.759Z,20.18
2022-08-22T02:32:41.472Z,20.27
2022-08-22T02:33:55.780Z,20.33
2022-08-22T02:35:22.171Z,20.35
2022-08-22T02:36:58.057Z,20.26
2022-08-22T02:38:10.602Z,20.19
2022-08-22T02:39:29.499Z,19.83
2022-08-22T02:40:31.082Z,19.56
2022-08-22T02:41:36.280Z,19.47
2022-08-22T02:42:40.558Z,19.35
2022-08-22T02:43:51.916Z,19.35
2022-08-22T02:45:03.398Z,19.46
2022-08-22T02:46:13.069Z,19.43
2022-08-22T02:47:31.369Z,19.38
2022-08-22T02:49:02.595Z,19.33
2022-08-22T02:50:23.691Z,19.28
2022-08-22T02:51:36.002Z,19.26
2022-08-22T02:53:12.547Z,19.31
2022-08-22T02:54:35.777Z,19.43
2022-08-22T02:55:52.413Z,19.41
2022-08-22T02:57:02.372Z,19.40
2022-08-22T02:58:25.405Z,19.38
2022-08-22T02:59:27.306Z,19.37
2022-08-22T03:00:40.899Z,19.32
2022-08-22T03:01:46.257Z,19.33
2022-08-22T03:02:57.268Z,19.31
2022-08-22T03:04:21.761Z,19.28
2022-08-22T03:05:26.441Z,19.33
2022-08-22T03:06:32.688Z,19.39
2022-08-22T03:07:41.278Z,19.47
2022-08-22T03:09:20.962Z,19.55
2022-08-22T03:10:29.273Z,19.63
2022-08-22T03:11:37.393Z,19.78
2022-08-22T03:13:01.704Z,19.84
2022-08-22T03:14:14.621Z,19.94
2022-08-22T03:15:23.462Z,20.01
2022-08-22T03:16:40.613Z,20.08
2022-08-22T03:17:57.191Z,20.16
2022-08-22T03:19:07.654Z,20.22
2022-08-22T03:20:35.349Z,20.26
2022-08-22T03:21:54.182Z,20.30
2022-08-22T03:23:07.393Z,20.36
2022-08-22T03:24:21.437Z,20.41
2022-08-22T03:25:39.324Z,20.51
2022-08-22T03:26:46.947Z,20.56
2022-08-22T03:28:07.313Z,20.60
2022-08-22T03:29:21.510Z,20.61
2022-08-22T03:30:28.904Z,20.62
2022-08-22T03:31:32.109Z,20.61
2022-08-22T03:32:54.479Z,20.59
2022-08-22T03:34:21.402Z,20.49
2022-08-22T03:35:26.156Z,20.48
2022-08-22T03:36:31.449Z,20.44
2022-08-22T03:37:36.209Z,20.45
2022-08-22T03:38:37.722Z,20.44
2022-08-22T03:39:50.116Z,20.47
2022-08-22T03:41:41.871Z,20.47
2022-08-22T03:43:04.620Z,20.52
2022-08-22T03:44:31.559Z,20.54
2022-08-22T03:46:10.490Z,20.50
2022-08-22T03:47:20.969Z,20.48
2022-08-22T03:48:25.332Z,20.43
2022-08-22T03:49:32.417Z,20.40
2022-08-22T03:50:55.902Z,20.33
2022-08-22T03:52:28.369Z,20.30
2022-08-22T03:53:38.909Z,20.25
2022-08-22T03:54:59.090Z,20.27
2022-08-22T03:56:26.139Z,20.34
2022-08-22T03:57:52.675Z,20.37
2022-08-22T03:59:28.202Z,20.42
2022-08-22T04:00:48.039Z,20.49
2022-08-22T04:02:35.212Z,20.53
2022-08-22T04:04:04.463Z,20.56
2022-08-22T04:05:18.009Z,20.57
2022-08-22T04:06:56.254Z,20.63
2022-08-22T04:08:26.319Z,20.67
2022-08-22T04:09:47.198Z,20.72
2022-08-22T04:11:08.406Z,20.60
2022-08-22T04:12:38.165Z,20.50
2022-08-22T04:13:54.726Z,20.49
2022-08-22T04:15:24.878Z,20.54
2022-08-22T04:16:26.405Z,20.47
2022-08-22T04:17:36.093Z,20.39
2022-08-22T04:18:46.801Z,20.35
2022-08-22T04:20:12.594Z,20.38
2022-08-22T04:21:43.286Z,20.38
2022-08-22T04:23:27.533Z,20.49
2022-08-22T04:24:53.153Z,20.58
2022-08-22T04:26:13.009Z,20.66
2022-08-22T04:27:34.052Z,20.76
2022-08-22T04:28:45.472Z,20.84
2022-08-22T04:30:10.062Z,20.94
2022-08-22T04:31:14.328Z,21.02
2022-08-22T04:32:36.739Z,21.11
2022-08-22T04:34:00.816Z,21.22
2022-08-22T04:35:12.052Z,21.28
2022-08-22T04:36:13.723Z,21.37
2022-08-22T04:37:51.732Z,21.43
2022-08-22T04:38:57.701Z,21.45
2022-08-22T04:40:17.284Z,21.45
2022-08-22T04:41:24.930Z,21.47
2022-08-22T04:42:39.360Z,21.43
2022-08-22T04:44:06.599Z,21.47
2022-08-22T04:45:08.460Z,21.47
2022-08-22T04:46:23.760Z,21.50
2022-08-22T04:47:39.085Z,21.55
2022-08-22T04:48:43.592Z,21.61
2022-08-22T04:49:58.399Z,21.63
2022-08-22T04:51:18.893Z,21.66
2022-08-22T04:52:35.788Z,21.60
2022-08-22T04:54:13.085Z,21.46
2022-08-22T04:55:43.358Z,20.99
2022-08-22T04:57:10.381Z,20.99
2022-08-22T04:58:43.872Z,21.08
2022-08-22T04:59:46.353Z,21.12
2022-08-22T05:01:06.694Z,21.16
2022-08-22T05:02:11.565Z,20.99
2022-08-22T05:03:16.856Z,21.04
2022-08-22T05:04:23.148Z,21.06
2022-08-22T05:05:31.519Z,20.85
2022-08-22T05:06:40.169Z,20.62
2022-08-22T05:08:03.288Z,20.53
2022-08-22T05:09:16.101Z,20.52
2022-08-22T05:10:33.459Z,20.47
2022-08-22T05:11:38.553Z,20.42
2022-08-22T05:12:43.477Z,20.35
2022-08-22T05:13:51.834Z,20.33
2022-08-22T05:15:00.365Z,20.36
2022-08-22T05:16:10.914Z,20.35
2022-08-22T05:17:21.570Z,20.35
2022-08-22T05:18:30.718Z,20.45
2022-08-22T05:19:36.408Z,20.49
2022-08-22T05:20:47.821Z,20.48
2022-08-22T05:21:51.810Z,20.55
2022-08-22T05:23:02.736Z,20.55
2022-08-22T05:24:32.885Z,20.62
2022-08-22T05:25:38.610Z,20.66
2022-08-22T05:26:44.616Z,20.73
2022-08-22T05:27:56.767Z,20.70
2022-08-22T05:29:03.941Z,20.72
2022-08-22T05:30:11.764Z,20.59
2022-08-22T05:31:17.152Z,20.53
2022-08-22T05:32:33.702Z,20.56
2022-08-22T05:33:45.962Z,20.54
2022-08-22T05:34:51.771Z,20.68
2022-08-22T05:36:07.778Z,20.89
2022-08-22T05:37:31.013Z,20.96
2022-08-22T05:38:37.474Z,20.97
2022-08-22T05:39:47.104Z,21.12
2022-08-22T05:40:59.416Z,21.30
2022-08-22T05:42:03.596Z,21.43
2022-08-22T05:43:09.501Z,21.53
2022-08-22T05:44:22.935Z,21.72
2022-08-22T05:45:26.796Z,21.70
2022-08-22T05:46:44.710Z,21.75
2022-08-22T05:47:51.397Z,21.84
2022-08-22T05:49:03.145Z,22.08
2022-08-22T05:50:12.193Z,22.29
2022-08-22T05:51:21.675Z,22.24
2022-08-22T05:53:01.059Z,22.25
2022-08-22T05:54:14.781Z,22.36
2022-08-22T05:55:26.176Z,22.63
2022-08-22T05:56:39.112Z,22.90
2022-08-22T05:57:47.255Z,23.13
2022-08-22T05:59:00.032Z,23.41
2022-08-22T06:00:28.645Z,23.70
2022-08-22T06:01:38.707Z,23.75
2022-08-22T06:03:08.152Z,23.70
2022-08-22T06:04:18.477Z,23.66
2022-08-22T06:05:32.412Z,23.83
2022-08-22T06:06:45.328Z,23.86
2022-08-22T06:07:50.319Z,23.80
2022-08-22T06:09:34.927Z,23.93
2022-08-22T06:10:48.259Z,24.09
2022-08-22T06:12:00.640Z,24.32
2022-08-22T06:13:12.043Z,24.56
2022-08-22T06:14:29.191Z,24.78
2022-08-22T06:15:38.833Z,25.00
2022-08-22T06:16:49.022Z,25.24
2022-08-22T06:17:56.115Z,25.46
2022-08-22T06:18:59.896Z,25.69
2022-08-22T06:20:02.923Z,25.86
2022-08-22T06:21:26.586Z,26.08
2022-08-22T06:22:32.130Z,26.24
2022-08-22T06:23:47.202Z,26.43
2022-08-22T06:24:51.145Z,26.58
2022-08-22T06:25:55.562Z,26.66
2022-08-22T06:27:02.889Z,26.58
2022-08-22T06:28:09.037Z,26.29
2022-08-22T06:29:18.826Z,26.04
2022-08-22T06:30:23.890Z,25.81
2022-08-22T06:31:34.052Z,25.66
2022-08-22T06:32:59.307Z,25.73
2022-08-22T06:34:27.341Z,26.10
2022-08-22T06:35:55.554Z,26.36
2022-08-22T06:37:02.047Z,26.48
2022-08-22T06:38:04.046Z,26.58
2022-08-22T06:39:32.341Z,26.81
2022-08-22T06:40:34.445Z,26.90
2022-08-22T06:41:59.900Z,26.83
2022-08-22T06:43:01.983Z,26.96
2022-08-22T06:44:06.167Z,26.97
2022-08-22T06:45:10.763Z,26.76
2022-08-22T06:46:16.541Z,26.56
2022-08-22T06:47:32.964Z,26.30
2022-08-22T06:48:36.319Z,26.36
2022-08-22T06:49:40.682Z,26.03
2022-08-22T06:50:44.682Z,25.80
2022-08-22T06:51:48.052Z,25.93
2022-08-22T06:53:08.956Z,26.28
2022-08-22T06:54:21.665Z,26.30
2022-08-22T06:55:26.370Z,26.31
2022-08-22T06:56:35.834Z,26.56
2022-08-22T06:57:43.797Z,26.82
2022-08-22T06:58:49.435Z,26.90
2022-08-22T06:59:53.346Z,27.01
2022-08-22T07:01:11.455Z,27.21
2022-08-22T07:02:45.090Z,27.25
2022-08-22T07:03:52.760Z,27.30
2022-08-22T07:04:54.529Z,27.30
2022-08-22T07:05:57.270Z,27.16
2022-08-22T07:07:01.472Z,27.02
2022-08-22T07:08:15.701Z,26.59
2022-08-22T07:09:24.261Z,26.66
2022-08-22T07:10:26.051Z,26.95
2022-08-22T07:11:30.614Z,27.10
2022-08-22T07:12:37.829Z,27.27
2022-08-22T07:13:45.472Z,27.25
2022-08-22T07:14:51.032Z,27.43
2022-08-22T07:15:57.234Z,27.63
2022-08-22T07:17:00.655Z,27.84
2022-08-22T07:18:06.817Z,27.83
2022-08-22T07:19:13.348Z,27.75
2022-08-22T07:20:28.557Z,27.78
2022-08-22T07:21:42.757Z,27.89
2022-08-22T07:22:59.172Z,27.95
2022-08-22T07:24:01.403Z,28.02
2022-08-22T07:25:16.477Z,28.06
2022-08-22T07:26:39.544Z,27.98
2022-08-22T07:27:52.497Z,27.88
2022-08-22T07:29:04.467Z,27.72
2022-08-22T07:30:13.044Z,27.42
2022-08-22T07:31:24.576Z,26.90
2022-08-22T07:33:25.975Z,26.86
2022-08-22T07:34:51.984Z,27.23
2022-08-22T07:36:01.624Z,27.24
2022-08-22T07:37:14.823Z,27.06
2022-08-22T07:38:32.082Z,27.04
2022-08-22T07:39:41.214Z,26.95
2022-08-22T07:40:59.758Z,26.98
2022-08-22T07:42:30.311Z,27.07
2022-08-22T07:44:11.617Z,27.05
2022-08-22T07:45:35.815Z,27.08
2022-08-22T07:46:41.288Z,27.22
2022-08-22T07:48:25.788Z,27.28
2022-08-22T07:49:35.554Z,27.36
2022-08-22T07:50:49.247Z,27.44
2022-08-22T07:51:58.971Z,27.30
2022-08-22T07:53:26.606Z,27.17
2022-08-22T07:54:58.320Z,27.24
2022-08-22T07:56:03.125Z,27.17
2022-08-22T07:57:14.124Z,27.24
2022-08-22T07:58:17.673Z,27.06
2022-08-22T07:59:22.020Z,26.95
2022-08-22T08:00:25.475Z,27.08
2022-08-22T08:01:29.308Z,27.12
2022-08-22T08:02:31.322Z,27.12
2022-08-22T08:03:33.050Z,27.13
2022-08-22T08:04:40.231Z,27.13
2022-08-22T08:05:44.742Z,27.19
2022-08-22T08:06:52.802Z,27.31
2022-08-22T08:07:56.266Z,27.38
2022-08-22T08:08:58.603Z,27.40
2022-08-22T08:10:05.957Z,27.43
2022-08-22T08:11:14.389Z,27.46
2022-08-22T08:12:18.803Z,27.47
2022-08-22T08:13:27.612Z,27.44
2022-08-22T08:14:31.058Z,27.22
2022-08-22T08:15:37.422Z,27.13
2022-08-22T08:16:50.024Z,27.05
2022-08-22T08:17:58.372Z,26.93
2022-08-22T08:19:02.911Z,26.86
2022-08-22T08:20:09.222Z,26.76
2022-08-22T08:21:25.433Z,26.61
2022-08-22T08:22:27.891Z,26.53
2022-08-22T08:23:39.065Z,26.52
2022-08-22T08:24:45.256Z,26.55
2022-08-22T08:25:54.665Z,26.66
2022-08-22T08:27:20.246Z,26.68
2022-08-22T08:28:34.903Z,26.64
2022-08-22T08:29:37.144Z,26.68
2022-08-22T08:30:46.833Z,26.65
2022-08-22T08:31:48.688Z,26.62
2022-08-22T08:32:57.474Z,26.69
2022-08-22T08:34:24.504Z,26.71
2022-08-22T08:35:30.028Z,26.49
2022-08-22T08:36:54.173Z,26.46
2022-08-22T08:38:03.616Z,26.58
2022-08-22T08:39:16.970Z,26.69
2022-08-22T08:40:59.702Z,26.77
2022-08-22T08:42:59.710Z,26.91
2022-08-22T08:44:30.756Z,26.99
2022-08-22T08:45:39.262Z,26.97
2022-08-22T08:46:55.534Z,26.92
2022-08-22T08:48:28.414Z,26.98
2022-08-22T08:49:59.725Z,27.19
2022-08-22T08:51:16.622Z,26.88
2022-08-22T08:52:34.080Z,26.76
2022-08-22T08:53:53.774Z,26.98
2022-08-22T08:55:02.397Z,27.31
2022-08-22T08:56:27.368Z,27.48
2022-08-22T08:57:44.131Z,27.67
2022-08-22T08:59:10.278Z,27.76
2022-08-22T09:00:14.879Z,27.87
2022-08-22T09:01:28.777Z,27.86
2022-08-22T09:03:07.269Z,27.96
2022-08-22T09:04:41.054Z,28.06
2022-08-22T09:06:14.949Z,28.04
2022-08-22T09:07:57.132Z,28.26
2022-08-22T09:09:18.022Z,28.19
2022-08-22T09:11:09.955Z,28.22
2022-08-22T09:12:37.358Z,28.27
2022-08-22T09:14:33.013Z,28.09
2022-08-22T09:16:04.572Z,28.12
2022-08-22T09:17:44.579Z,28.26
2022-08-22T09:19:21.437Z,28.24
2022-08-22T09:20:57.324Z,28.11
2022-08-22T09:22:14.528Z,28.21
2022-08-22T09:24:09.807Z,28.23
2022-08-22T09:25:38.408Z,28.26
2022-08-22T09:26:49.579Z,28.17
2022-08-22T09:27:59.522Z,28.05
2022-08-22T09:29:34.862Z,27.94
2022-08-22T09:31:02.646Z,27.97
2022-08-22T09:32:21.298Z,28.05
2022-08-22T09:33:35.108Z,28.01
2022-08-22T09:35:03.156Z,27.83
2022-08-22T09:36:18.565Z,27.91
2022-08-22T09:37:34.149Z,28.09
2022-08-22T09:38:56.893Z,28.20
2022-08-22T09:40:06.324Z,28.21
2022-08-22T09:41:47.650Z,28.26
2022-08-22T09:43:21.205Z,28.17
2022-08-22T09:44:31.053Z,28.12
2022-08-22T09:46:02.139Z,28.03
2022-08-22T09:47:33.517Z,28.11
2022-08-22T09:49:12.683Z,28.14
2022-08-22T09:50:31.157Z,27.87
2022-08-22T09:51:37.467Z,27.80
2022-08-22T09:52:57.161Z,28.02
2022-08-22T09:54:04.627Z,28.09
2022-08-22T09:55:17.164Z,28.10
2022-08-22T09:56:46.577Z,28.22
2022-08-22T09:58:01.427Z,28.25
2022-08-22T09:59:09.858Z,28.30
2022-08-22T10:00:23.610Z,28.32
2022-08-22T10:01:43.188Z,28.13
2022-08-22T10:03:06.242Z,27.96
2022-08-22T10:04:14.834Z,27.79
2022-08-22T10:05:43.703Z,27.56
2022-08-22T10:07:11.747Z,27.75
2022-08-22T10:08:30.349Z,27.81
2022-08-22T10:10:21.301Z,27.95
2022-08-22T10:11:30.710Z,28.06
2022-08-22T10:12:42.667Z,28.20
2022-08-22T10:14:00.489Z,28.20
2022-08-22T10:15:28.547Z,28.23
2022-08-22T10:17:07.599Z,28.31
2022-08-22T10:18:16.700Z,28.35
2022-08-22T10:19:39.285Z,28.40
2022-08-22T10:21:07.319Z,28.45
2022-08-22T10:22:12.151Z,28.42
2022-08-22T10:23:33.998Z,28.40
2022-08-22T10:24:52.188Z,28.38
2022-08-22T10:26:01.551Z,28.33
2022-08-22T10:27:14.059Z,28.40
2022-08-22T10:28:28.516Z,28.48
2022-08-22T10:29:58.077Z,28.43
2022-08-22T10:31:08.043Z,28.36
2022-08-22T10:32:14.438Z,28.22
2022-08-22T10:33:21.451Z,28.21
2022-08-22T10:34:40.355Z,28.27
2022-08-22T10:35:43.871Z,28.31
2022-08-22T10:37:04.646Z,28.35
2022-08-22T10:38:12.433Z,28.34
2022-08-22T10:39:23.465Z,28.38
2022-08-22T10:40:32.039Z,28.45
2022-08-22T10:41:55.107Z,28.54
2022-08-22T10:43:37.499Z,28.53
2022-08-22T10:44:48.837Z,28.38
2022-08-22T10:46:03.484Z,28.39
2022-08-22T10:47:14.506Z,28.33
2022-08-22T10:48:23.774Z,28.26
2022-08-22T10:49:39.291Z,28.28
2022-08-22T10:50:49.218Z,28.30
2022-08-22T10:52:14.857Z,28.32
2022-08-22T10:53:30.324Z,28.29
2022-08-22T10:55:00.472Z,28.31
2022-08-22T10:56:46.306Z,28.45
2022-08-22T10:58:09.333Z,28.42
2022-08-22T10:59:27.499Z,28.42
2022-08-22T11:00:49.777Z,28.46
2022-08-22T11:02:07.001Z,28.46
2022-08-22T11:03:28.294Z,28.59
2022-08-22T11:05:07.402Z,28.57
2022-08-22T11:06:38.073Z,28.44
2022-08-22T11:08:04.443Z,28.52
2022-08-22T11:09:14.892Z,28.53
2022-08-22T11:10:47.837Z,28.68
2022-08-22T11:12:34.673Z,28.82
2022-08-22T11:13:49.643Z,28.95
2022-08-22T11:15:03.292Z,29.05
2022-08-22T11:16:24.734Z,29.16
2022-08-22T11:17:35.524Z,29.24
2022-08-22T11:19:15.244Z,29.33
2022-08-22T11:20:37.769Z,29.39
2022-08-22T11:21:54.494Z,29.44
2022-08-22T11:23:21.168Z,29.42
2022-08-22T11:24:35.710Z,29.47
2022-08-22T11:25:58.139Z,29.39
2022-08-22T11:27:03.040Z,29.33
2022-08-22T11:28:32.919Z,29.19
2022-08-22T11:29:44.799Z,29.12
2022-08-22T11:31:07.214Z,29.09
2022-08-22T11:32:21.447Z,29.08
2022-08-22T11:33:50.678Z,29.08
2022-08-22T11:35:01.116Z,28.88
2022-08-22T11:36:12.050Z,29.00
2022-08-22T11:37:23.897Z,29.13
2022-08-22T11:38:54.177Z,29.28
2022-08-22T11:40:24.327Z,29.38
2022-08-22T11:41:36.519Z,29.31
2022-08-22T11:42:48.040Z,29.38
2022-08-22T11:43:59.283Z,29.32
2022-08-22T11:45:05.741Z,29.36
2022-08-22T11:46:20.048Z,29.50
2022-08-22T11:47:27.290Z,29.56
2022-08-22T11:48:52.980Z,29.54
2022-08-22T11:50:19.161Z,29.59
2022-08-22T11:51:49.532Z,29.72
2022-08-22T11:53:16.967Z,29.63
2022-08-22T11:54:42.075Z,29.63
2022-08-22T11:56:05.559Z,29.59
2022-08-22T11:57:12.068Z,29.47
2022-08-22T11:58:32.253Z,29.31
2022-08-22T11:59:43.021Z,29.22
2022-08-22T12:00:58.933Z,29.28
2022-08-22T12:02:05.189Z,29.34
2022-08-22T12:03:58.549Z,29.40
2022-08-22T12:05:11.061Z,29.31
2022-08-22T12:06:23.967Z,29.16
2022-08-22T12:07:30.078Z,29.15
2022-08-22T12:08:35.252Z,28.96
2022-08-22T12:09:50.841Z,28.88
2022-08-22T12:11:01.454Z,28.89
2022-08-22T12:12:20.438Z,28.82
2022-08-22T12:13:52.401Z,28.90
2022-08-22T12:15:17.517Z,29.05
2022-08-22T12:16:47.411Z,28.85
2022-08-22T12:18:07.413Z,28.69
2022-08-22T12:19:33.116Z,28.64
2022-08-22T12:20:56.167Z,28.53
2022-08-22T12:22:13.837Z,28.60
2022-08-22T12:23:49.167Z,28.66
2022-08-22T12:25:25.394Z,28.56
2022-08-22T12:26:43.091Z,28.56
2022-08-22T12:28:10.956Z,28.47
2022-08-22T12:29:44.897Z,28.25
2022-08-22T12:30:54.814Z,27.97
2022-08-22T12:32:10.266Z,27.71
2022-08-22T12:33:31.369Z,27.59
2022-08-22T12:34:59.659Z,27.41
2022-08-22T12:36:27.681Z,27.35
2022-08-22T12:37:35.681Z,27.37
2022-08-22T12:39:24.480Z,27.18
2022-08-22T12:40:56.846Z,27.14
2022-08-22T12:42:41.836Z,27.03
2022-08-22T12:44:16.413Z,26.83
2022-08-22T12:45:21.626Z,26.75
2022-08-22T12:46:29.776Z,26.52
2022-08-22T12:47:42.362Z,26.44
2022-08-22T12:49:07.452Z,26.33
2022-08-22T12:50:36.035Z,26.25
2022-08-22T12:51:43.567Z,26.16
2022-08-22T12:53:25.698Z,26.08
2022-08-22T12:54:45.439Z,26.15
2022-08-22T12:56:06.742Z,26.20
2022-08-22T12:57:24.447Z,26.25
2022-08-22T12:58:43.417Z,26.30
2022-08-22T12:59:48.794Z,26.10
2022-08-22T13:00:52.589Z,26.02
2022-08-22T13:01:59.493Z,26.08
2022-08-22T13:03:25.087Z,26.02
2022-08-22T13:04:34.202Z,25.97
2022-08-22T13:05:40.786Z,25.93
2022-08-22T13:06:48.820Z,25.94
2022-08-22T13:07:59.238Z,26.04
2022-08-22T13:09:22.814Z,26.09
2022-08-22T13:10:45.197Z,26.08
2022-08-22T13:11:51.594Z,26.16
2022-08-22T13:12:56.837Z,26.15
2022-08-22T13:14:00.937Z,26.16
2022-08-22T13:15:24.062Z,26.16
2022-08-22T13:16:48.868Z,26.11
2022-08-22T13:17:54.758Z,26.20
2022-08-22T13:19:07.477Z,26.27
2022-08-22T13:20:24.243Z,26.08
2022-08-22T13:21:34.952Z,25.89
2022-08-22T13:22:45.309Z,25.78
2022-08-22T13:23:53.345Z,25.82
2022-08-22T13:25:26.486Z,25.86
2022-08-22T13:26:33.712Z,25.78
2022-08-22T13:27:50.691Z,25.83
2022-08-22T13:29:24.434Z,25.80
2022-08-22T13:30:24.133Z,25.77
2022-08-22T13:31:30.602Z,25.75
2022-08-22T13:32:38.321Z,25.78
2022-08-22T13:33:47.763Z,25.80
2022-08-22T13:34:54.257Z,25.84
2022-08-22T13:36:07.034Z,25.94
2022-08-22T13:37:17.905Z,25.97
2022-08-22T13:38:46.277Z,26.09
2022-08-22T13:39:53.550Z,26.25
2022-08-22T13:40:58.259Z,26.37
2022-08-22T13:42:03.698Z,26.41
2022-08-22T13:43:27.183Z,26.49
2022-08-22T13:44:31.472Z,26.48
2022-08-22T13:45:36.311Z,26.60
2022-08-22T13:46:48.308Z,26.72
2022-08-22T13:48:03.652Z,26.83
2022-08-22T13:49:10.154Z,26.83
2022-08-22T13:50:19.077Z,26.73
2022-08-22T13:51:31.271Z,26.86
2022-08-22T13:52:54.994Z,26.99
2022-08-22T13:54:11.120Z,27.01
2022-08-22T13:55:20.979Z,26.90
2022-08-22T13:56:28.416Z,26.77
2022-08-22T13:57:36.854Z,26.72
2022-08-22T13:58:43.848Z,26.74
2022-08-22T13:59:55.432Z,26.83
2022-08-22T14:01:43.306Z,27.08
2022-08-22T14:03:08.294Z,27.28
2022-08-22T14:04:28.529Z,27.38
2022-08-22T14:05:43.821Z,27.46
2022-08-22T14:07:16.561Z,27.35
2022-08-22T14:08:25.880Z,27.29
2022-08-22T14:09:38.204Z,27.29
2022-08-22T14:10:47.808Z,27.41
2022-08-22T14:12:12.755Z,27.50
2022-08-22T14:13:20.901Z,27.40
2022-08-22T14:14:31.894Z,27.42
2022-08-22T14:15:45.997Z,27.30
2022-08-22T14:16:52.112Z,27.29
2022-08-22T14:18:09.449Z,27.38
2022-08-22T14:19:31.058Z,27.52
2022-08-22T14:20:38.508Z,27.63
2022-08-22T14:21:53.411Z,27.76
2022-08-22T14:23:27.275Z,27.81
2022-08-22T14:24:45.603Z,27.86
2022-08-22T14:25:48.071Z,27.98
2022-08-22T14:27:06.697Z,28.02
2022-08-22T14:28:27.503Z,28.15
2022-08-22T14:29:34.501Z,28.17
2022-08-22T14:31:00.542Z,28.21
2022-08-22T14:32:12.135Z,28.27
2022-08-22T14:33:22.652Z,28.32
2022-08-22T14:34:26.003Z,28.35
2022-08-22T14:35:35.382Z,28.32
2022-08-22T14:36:53.271Z,28.35
2022-08-22T14:38:17.589Z,28.29
2022-08-22T14:39:43.580Z,28.28
2022-08-22T14:40:47.160Z,28.21
2022-08-22T14:42:03.452Z,28.18
2022-08-22T14:43:15.923Z,28.21
2022-08-22T14:44:40.380Z,28.15
2022-08-22T14:45:46.169Z,28.19
2022-08-22T14:46:56.771Z,28.14
2022-08-22T14:48:30.695Z,28.15
2022-08-22T14:49:35.790Z,28.04
2022-08-22T14:50:53.052Z,27.99
2022-08-22T14:52:19.422Z,27.82
2022-08-22T14:53:22.110Z,27.70
2022-08-22T14:54:30.036Z,27.46
2022-08-22T14:55:32.850Z,27.25
2022-08-22T14:56:37.514Z,26.99
2022-08-22T14:58:15.196Z,26.73
2022-08-22T14:59:34.718Z,26.57
2022-08-22T15:00:39.850Z,26.42
2022-08-22T15:01:58.528Z,26.30
2022-08-22T15:03:32.432Z,26.18
2022-08-22T15:04:38.883Z,26.14
2022-08-22T15:05:55.447Z,26.05
2022-08-22T15:06:59.009Z,26.02
2022-08-22T15:08:00.959Z,26.01
2022-08-22T15:09:28.608Z,26.01
2022-08-22T15:10:34.369Z,26.05
2022-08-22T15:11:37.394Z,26.03
2022-08-22T15:12:51.320Z,26.06
2022-08-22T15:14:04.614Z,26.08
2022-08-22T15:15:14.363Z,26.01
2022-08-22T15:16:22.627Z,25.97
2022-08-22T15:17:38.442Z,25.93
2022-08-22T15:18:41.639Z,25.87
2022-08-22T15:19:53.615Z,25.82
2022-08-22T15:21:11.334Z,25.78
2022-08-22T15:22:41.107Z,25.67
2022-08-22T15:23:48.296Z,25.59
2022-08-22T15:24:58.195Z,25.53
2022-08-22T15:26:13.263Z,25.50
2022-08-22T15:27:20.433Z,25.43
2022-08-22T15:28:22.670Z,25.38
2022-08-22T15:29:28.958Z,25.38
2022-08-22T15:30:49.844Z,25.40
2022-08-22T15:32:00.924Z,25.36
2022-08-22T15:33:14.389Z,25.37
2022-08-22T15:34:35.717Z,25.37
2022-08-22T15:35:38.908Z,25.45
2022-08-22T15:37:08.496Z,25.47
2022-08-22T15:38:28.998Z,25.47
2022-08-22T15:39:57.839Z,25.46
2022-08-22T15:41:36.553Z,25.55
2022-08-22T15:42:51.287Z,25.56
2022-08-22T15:44:14.782Z,25.54
2022-08-22T15:45:37.315Z,25.46
2022-08-22T15:46:43.677Z,25.47
2022-08-22T15:47:52.132Z,25.47
2022-08-22T15:49:02.075Z,25.51
2022-08-22T15:50:11.938Z,25.51
2022-08-22T15:51:34.125Z,25.50
2022-08-22T15:53:08.676Z,25.54
2022-08-22T15:54:24.698Z,25.56
2022-08-22T15:55:28.705Z,25.59
2022-08-22T15:56:39.761Z,25.60
2022-08-22T15:58:13.210Z,25.66
2022-08-22T15:59:52.599Z,25.69
2022-08-22T16:01:20.343Z,25.77
2022-08-22T16:02:39.979Z,25.81
2022-08-22T16:03:52.964Z,25.88
2022-08-22T16:05:10.414Z,25.88
2022-08-22T16:06:12.307Z,25.94
2022-08-22T16:07:33.585Z,26.00
2022-08-22T16:08:49.667Z,26.01
2022-08-22T16:09:54.258Z,25.97
2022-08-22T16:11:27.479Z,25.97
2022-08-22T16:12:42.059Z,26.03
2022-08-22T16:13:45.019Z,26.04
2022-08-22T16:14:50.217Z,26.06
2022-08-22T16:15:59.590Z,26.02
2022-08-22T16:17:26.300Z,26.00
2022-08-22T16:18:33.997Z,25.94
2022-08-22T16:19:36.015Z,25.87
2022-08-22T16:20:37.599Z,25.79